createdAt,value
2023-04-30T00:03:17.316Z,12.23
2023-04-30T00:08:22.345Z,13.50
2023-04-30T00:13:26.003Z,10.47
2023-04-30T00:18:29.607Z,12.68
2023-04-30T00:23:34.736Z,8.75
2023-04-30T00:28:38.322Z,8.82
2023-04-30T00:33:42.254Z,11.05
2023-04-30T00:38:47.234Z,13.02
2023-04-30T00:43:51.104Z,12.82
2023-04-30T00:48:54.768Z,7.63
2023-04-30T00:54:02.238Z,6.38
2023-04-30T00:59:05.506Z,7.35
2023-04-30T01:04:09.097Z,8.23
2023-04-30T01:09:14.017Z,4.30
2023-04-30T01:14:26.467Z,3.67
2023-04-30T01:19:42.490Z,6.47
2023-04-30T01:25:07.680Z,9.23
2023-04-30T01:30:14.738Z,6.20
2023-04-30T01:35:18.308Z,5.40
2023-04-30T01:40:26.371Z,6.90
2023-04-30T01:45:45.699Z,8.93
2023-04-30T01:50:53.627Z,7.38
2023-04-30T01:56:01.019Z,14.52
2023-04-30T02:01:06.932Z,8.68
2023-04-30T02:06:10.492Z,7.40
2023-04-30T02:11:14.217Z,11.23
2023-04-30T02:16:19.041Z,7.32
2023-04-30T02:21:22.731Z,7.68
2023-04-30T02:26:27.033Z,6.85
2023-04-30T02:31:32.135Z,12.93
2023-04-30T02:36:37.074Z,10.20
2023-04-30T02:41:40.645Z,8.80
2023-04-30T02:46:45.836Z,10.25
2023-04-30T02:51:49.443Z,10.68
2023-04-30T02:56:53.181Z,8.23
2023-04-30T03:01:58.235Z,7.45
2023-04-30T03:07:02.100Z,9.25
2023-04-30T03:12:06.339Z,8.20
2023-04-30T03:17:11.453Z,10.40
2023-04-30T03:22:14.682Z,5.90
2023-04-30T03:27:18.380Z,8.77
2023-04-30T03:32:23.338Z,13.07
2023-04-30T03:37:27.033Z,12.45
2023-04-30T03:42:30.398Z,8.18
2023-04-30T03:47:35.623Z,10.85
2023-04-30T03:52:39.221Z,10.52
2023-04-30T03:57:43.049Z,10.43
2023-04-30T04:02:48.382Z,9.45
2023-04-30T04:12:55.758Z,8.02
2023-04-30T04:18:00.776Z,10.45
2023-04-30T04:23:04.570Z,12.95
2023-04-30T04:28:08.394Z,10.38
2023-04-30T04:33:13.446Z,9.45
2023-04-30T04:38:17.634Z,18.13
2023-04-30T04:43:21.525Z,11.43
2023-04-30T04:48:26.725Z,10.00
2023-04-30T04:53:30.363Z,9.30
2023-04-30T04:58:34.114Z,8.90
2023-04-30T05:03:39.237Z,12.93
2023-04-30T05:08:43.082Z,7.88
2023-04-30T05:13:46.679Z,15.90
2023-04-30T05:18:52.740Z,10.18
2023-04-30T05:23:56.061Z,18.13
2023-04-30T05:28:59.360Z,14.15
2023-04-30T05:34:03.983Z,11.45
2023-04-30T05:39:07.586Z,10.43
2023-04-30T05:44:11.046Z,12.63
2023-04-30T05:49:16.047Z,19.75
2023-04-30T05:54:19.745Z,6.95
2023-04-30T05:59:23.273Z,10.68
2023-04-30T06:04:28.216Z,18.95
2023-04-30T06:09:31.793Z,14.47
2023-04-30T06:14:36.556Z,10.90
2023-04-30T06:19:41.514Z,6.17
2023-04-30T06:24:45.884Z,11.80
2023-04-30T06:29:49.452Z,5.10
2023-04-30T06:34:54.587Z,8.68
2023-04-30T06:39:58.125Z,12.98
2023-04-30T06:45:02.307Z,10.30
2023-04-30T06:50:08.441Z,14.67
2023-04-30T07:00:16.796Z,7.70
2023-04-30T07:05:21.837Z,10.80
2023-04-30T07:10:25.404Z,12.80
2023-04-30T07:15:29.159Z,6.30
2023-04-30T07:20:34.159Z,15.95
2023-04-30T07:25:37.840Z,10.35
2023-04-30T07:30:41.750Z,10.55
2023-04-30T07:35:47.047Z,7.72
2023-04-30T07:40:50.626Z,11.82
2023-04-30T07:45:55.206Z,12.73
2023-04-30T07:51:00.187Z,12.05
2023-04-30T07:56:03.775Z,8.25
2023-04-30T08:01:07.530Z,9.55
2023-04-30T08:06:12.633Z,11.05
2023-04-30T08:11:16.580Z,6.55
2023-04-30T08:16:20.433Z,12.75
2023-04-30T08:21:25.465Z,10.13
2023-04-30T08:26:29.087Z,12.67
2023-04-30T08:31:32.991Z,12.15
2023-04-30T08:36:37.662Z,7.95
2023-04-30T08:41:43.383Z,7.10
2023-04-30T08:46:48.165Z,7.22
2023-04-30T08:51:53.646Z,5.70
2023-04-30T08:56:57.551Z,11.60
2023-04-30T09:02:02.703Z,9.63
2023-04-30T09:07:09.648Z,3.83
2023-04-30T09:12:19.278Z,11.95
2023-04-30T09:17:24.083Z,5.47
2023-04-30T09:22:29.346Z,7.00
2023-04-30T09:27:33.258Z,8.43
2023-04-30T09:32:37.110Z,4.63
2023-04-30T09:37:42.061Z,8.27
2023-04-30T09:43:00.434Z,6.07
2023-04-30T09:48:16.470Z,11.63
2023-04-30T09:53:24.074Z,3.38
2023-04-30T09:58:30.582Z,5.95
2023-04-30T10:03:35.535Z,5.22
2023-04-30T10:08:42.887Z,6.97
2023-04-30T10:13:54.478Z,6.00
2023-04-30T10:19:02.195Z,4.07
2023-04-30T10:24:08.017Z,7.75
2023-04-30T10:29:12.149Z,4.35
2023-04-30T10:34:27.458Z,5.65
2023-04-30T10:39:32.856Z,6.50
2023-04-30T10:44:38.339Z,5.78
2023-04-30T10:54:52.316Z,5.10
2023-04-30T11:00:26.093Z,8.95
2023-04-30T11:05:37.913Z,6.90
2023-04-30T11:10:59.180Z,5.85
2023-04-30T11:16:05.748Z,7.40
2023-04-30T11:21:11.326Z,9.52
2023-04-30T11:26:17.385Z,6.00
2023-04-30T11:31:21.151Z,5.73
2023-04-30T11:36:27.102Z,7.18
2023-04-30T11:41:32.236Z,7.75
2023-04-30T11:46:35.948Z,11.05
2023-04-30T11:51:39.878Z,5.57
2023-04-30T11:56:48.944Z,7.45
2023-04-30T12:01:53.074Z,4.70
2023-04-30T12:06:56.767Z,5.13
2023-04-30T12:12:02.748Z,6.20
2023-04-30T12:17:06.276Z,4.18
2023-04-30T12:22:09.833Z,5.22
2023-04-30T12:27:16.225Z,6.50
2023-04-30T12:32:20.240Z,7.03
2023-04-30T12:37:23.924Z,6.43
2023-04-30T12:42:34.718Z,7.05
2023-04-30T12:47:41.936Z,8.95
2023-04-30T12:52:46.460Z,7.80
2023-04-30T12:58:07.941Z,3.95
2023-04-30T13:03:11.775Z,4.25
2023-04-30T13:08:15.933Z,5.32
2023-04-30T13:13:21.766Z,3.85
2023-04-30T13:18:25.462Z,6.95
2023-04-30T13:23:30.398Z,6.43
2023-04-30T13:28:37.189Z,7.38
2023-04-30T13:33:40.881Z,5.88
2023-04-30T13:38:44.870Z,6.45
2023-04-30T13:43:49.746Z,8.88
2023-04-30T13:48:54.604Z,7.05
2023-04-30T13:53:58.406Z,5.68
2023-04-30T13:59:04.568Z,7.32
2023-04-30T14:04:08.844Z,10.13
2023-04-30T14:09:12.613Z,3.67
2023-04-30T14:14:18.104Z,7.55
2023-04-30T14:19:22.680Z,3.72
2023-04-30T14:24:26.208Z,10.23
2023-04-30T14:29:31.269Z,5.38
2023-04-30T14:34:35.056Z,5.85
2023-04-30T14:39:38.775Z,4.13
2023-04-30T14:44:44.300Z,5.68
2023-04-30T14:49:48.498Z,5.70
2023-04-30T14:54:52.133Z,8.07
2023-04-30T14:59:58.297Z,4.85
2023-04-30T15:05:01.846Z,5.18
2023-04-30T15:10:06.977Z,4.03
2023-04-30T15:15:13.330Z,8.02
2023-04-30T15:20:16.867Z,6.28
2023-04-30T15:25:20.446Z,6.88
2023-04-30T15:30:25.365Z,6.25
2023-04-30T15:35:29.025Z,10.27
2023-04-30T15:40:32.966Z,8.70
2023-04-30T15:45:38.578Z,4.28
2023-04-30T15:50:42.098Z,6.90
2023-04-30T15:55:46.930Z,2.88
2023-04-30T16:00:51.783Z,7.55
2023-04-30T16:05:56.028Z,3.72
2023-04-30T16:10:59.665Z,4.57
2023-04-30T16:16:05.285Z,5.28
2023-04-30T16:21:10.786Z,7.22
2023-04-30T16:26:14.430Z,7.57
2023-04-30T16:31:23.026Z,3.80
2023-04-30T16:36:26.796Z,6.43
2023-04-30T16:41:30.304Z,9.20
2023-04-30T16:46:35.873Z,5.32
2023-04-30T16:51:39.771Z,3.70
2023-04-30T16:56:43.876Z,5.28
2023-04-30T17:01:49.138Z,6.22
2023-04-30T17:06:53.398Z,4.38
2023-04-30T17:11:57.377Z,2.70
2023-04-30T17:17:02.456Z,5.57
2023-04-30T17:27:09.890Z,7.60
2023-04-30T17:32:17.904Z,6.18
2023-04-30T17:37:21.752Z,7.28
2023-04-30T17:42:25.645Z,8.50
2023-04-30T17:47:32.352Z,5.00
2023-04-30T17:52:39.101Z,8.63
2023-04-30T17:57:43.202Z,3.78
2023-04-30T18:02:48.711Z,5.40
2023-04-30T18:07:52.490Z,3.58
2023-04-30T18:12:56.191Z,6.32
2023-04-30T18:18:01.301Z,3.58
2023-04-30T18:23:09.888Z,5.15
2023-04-30T18:28:15.004Z,10.88
2023-04-30T18:33:20.129Z,6.77
2023-04-30T18:38:24.018Z,6.35
2023-04-30T18:43:27.802Z,5.63
2023-04-30T18:48:33.004Z,7.25
2023-04-30T18:53:37.483Z,4.75
2023-04-30T18:58:41.166Z,4.90
2023-04-30T19:03:45.898Z,6.50
2023-04-30T19:08:50.072Z,6.37
2023-04-30T19:13:53.656Z,6.53
2023-04-30T19:18:59.060Z,12.35
2023-04-30T19:24:03.785Z,10.88
2023-04-30T19:29:07.491Z,9.77
2023-04-30T19:34:14.303Z,6.47
2023-04-30T19:39:20.674Z,6.63
2023-04-30T19:44:24.182Z,16.50
2023-04-30T19:49:29.796Z,5.68
2023-04-30T19:59:36.935Z,4.10
2023-04-30T20:04:42.094Z,29.63
2023-04-30T20:09:45.851Z,24.85
2023-04-30T20:14:49.586Z,22.98
2023-04-30T20:19:54.907Z,21.55
2023-04-30T20:24:58.648Z,19.90
2023-04-30T20:30:04.662Z,10.80
2023-04-30T20:35:10.569Z,10.38
2023-04-30T20:40:15.001Z,14.75
2023-04-30T20:45:19.964Z,12.23
2023-04-30T20:50:26.213Z,11.77
2023-04-30T20:55:30.154Z,12.68
2023-04-30T21:00:33.771Z,12.25
2023-04-30T21:05:38.513Z,13.48
2023-04-30T21:10:42.546Z,14.87
2023-04-30T21:15:47.497Z,17.98
2023-04-30T21:20:53.000Z,11.37
2023-04-30T21:25:56.786Z,16.13
2023-04-30T21:31:04.662Z,15.88
2023-04-30T21:36:10.080Z,17.60
2023-04-30T21:41:17.230Z,20.92
2023-04-30T21:46:21.014Z,16.25
2023-04-30T21:51:26.420Z,16.02
2023-04-30T21:56:30.122Z,16.77
2023-04-30T22:01:33.908Z,21.83
2023-04-30T22:06:39.164Z,17.92
2023-04-30T22:11:43.147Z,22.73
2023-04-30T22:16:46.907Z,20.45
2023-04-30T22:21:52.081Z,21.85
2023-04-30T22:26:56.020Z,22.42
2023-04-30T22:32:00.123Z,19.15
2023-04-30T22:37:05.513Z,14.38
2023-04-30T22:42:10.777Z,18.70
2023-04-30T22:47:14.578Z,27.55
2023-04-30T22:52:19.393Z,19.33
2023-04-30T22:57:23.394Z,19.10
2023-04-30T23:02:29.163Z,18.20
2023-04-30T23:07:34.370Z,16.83
2023-04-30T23:12:38.198Z,17.98
2023-04-30T23:17:42.007Z,14.43
2023-04-30T23:22:47.431Z,11.57
2023-04-30T23:27:51.824Z,15.02
2023-04-30T23:32:56.007Z,16.48
2023-04-30T23:38:01.212Z,13.30
2023-04-30T23:43:04.977Z,17.92
2023-04-30T23:48:09.163Z,15.27
2023-04-30T23:53:14.414Z,13.52
2023-04-30T23:58:17.976Z,13.38
